Time;durP1;ratioP1;P1;durP2;ratioP2;P2;SDS_P1;SDS_P2;PMS_P1;PMS_P2;Temp;Humidity;BMP_temperature;BMP_pressure;BME280_temperature;BME280_humidity;BME280_pressure;Samples;Min_cycle;Max_cycle;Signal;HPM_P1;HPM_P2
2023/09/19 00:00:36;;;;;;;6.70;1.65;;;17.40;99.90;;;;;;4972418;28;20057;-49
2023/09/19 00:03:02;;;;;;;2.67;1.40;;;17.50;99.90;;;;;;4972505;28;20513;-48
2023/09/19 00:05:29;;;;;;;5.18;1.95;;;17.50;99.90;;;;;;4972131;28;20583;-51
2023/09/19 00:08:00;;;;;;;8.20;1.95;;;17.40;99.90;;;;;;4972500;28;20031;-50
2023/09/19 00:10:26;;;;;;;4.72;1.50;;;17.40;99.90;;;;;;4974935;28;20031;-50
2023/09/19 00:12:55;;;;;;;6.35;1.90;;;17.50;99.90;;;;;;4976338;28;20109;-51
2023/09/19 00:15:28;;;;;;;2.30;1.60;;;17.50;99.90;;;;;;4976071;28;20402;-51
2023/09/19 00:17:54;;;;;;;6.68;2.28;;;17.50;99.90;;;;;;4975337;28;20375;-48
2023/09/19 00:20:22;;;;;;;4.88;2.00;;;17.40;99.90;;;;;;4976415;28;20082;-49
2023/09/19 00:22:50;;;;;;;3.05;1.60;;;17.40;99.90;;;;;;4977073;28;20073;-50
2023/09/19 00:25:15;;;;;;;3.47;1.75;;;17.30;99.90;;;;;;4975746;28;20550;-48
2023/09/19 00:27:43;;;;;;;3.65;1.60;;;17.30;99.90;;;;;;4975185;28;20074;-51
2023/09/19 00:30:19;;;;;;;4.03;2.08;;;17.30;99.90;;;;;;4976289;28;20030;-51
2023/09/19 00:32:47;;;;;;;3.10;2.33;;;17.30;99.90;;;;;;4975072;28;20089;-49
2023/09/19 00:35:14;;;;;;;4.15;1.65;;;17.40;99.90;;;;;;4975776;28;20046;-50
2023/09/19 00:37:40;;;;;;;5.90;1.67;;;17.30;99.90;;;;;;4976001;28;20031;-51
2023/09/19 00:40:15;;;;;;;3.85;1.55;;;17.30;99.90;;;;;;4975971;28;20042;-50
2023/09/19 00:42:46;;;;;;;3.58;1.52;;;17.30;99.90;;;;;;4976231;28;20027;-51
2023/09/19 00:45:13;;;;;;;2.45;1.60;;;17.40;99.90;;;;;;4976035;28;20066;-48
2023/09/19 00:47:50;;;;;;;8.77;2.05;;;17.30;99.90;;;;;;4975754;28;20390;-49
2023/09/19 00:50:22;;;;;;;5.43;2.08;;;17.40;99.90;;;;;;4975824;28;20490;-49
2023/09/19 00:52:50;;;;;;;2.38;1.45;;;17.40;99.90;;;;;;4976146;28;20506;-47
2023/09/19 00:55:19;;;;;;;1.95;1.55;;;17.40;99.90;;;;;;4974152;28;20490;-50
2023/09/19 00:57:45;;;;;;;2.95;1.60;;;17.50;99.90;;;;;;4975657;28;20031;-51
2023/09/19 01:00:15;;;;;;;3.28;1.90;;;17.40;99.90;;;;;;4975587;28;20446;-51
2023/09/19 01:02:42;;;;;;;3.85;2.08;;;17.40;99.90;;;;;;4975201;28;20034;-49
2023/09/19 01:05:09;;;;;;;2.78;1.88;;;17.40;99.90;;;;;;4975369;28;20070;-50
2023/09/19 01:07:35;;;;;;;2.30;1.48;;;17.40;99.90;;;;;;4975366;28;20057;-49
2023/09/19 01:10:05;;;;;;;2.55;1.80;;;17.40;99.90;;;;;;4974242;28;20515;-46
2023/09/19 01:12:40;;;;;;;1.83;1.60;;;17.50;99.90;;;;;;4975292;28;20194;-50
2023/09/19 01:15:26;;;;;;;2.72;2.00;;;17.50;99.90;;;;;;4975127;28;20023;-51
2023/09/19 01:17:56;;;;;;;3.60;1.75;;;17.50;99.90;;;;;;4964271;28;20093;-48
2023/09/19 01:20:27;;;;;;;2.38;1.40;;;17.50;99.90;;;;;;4975118;28;20545;-49
2023/09/19 01:23:21;;;;;;;5.40;1.85;;;17.60;99.90;;;;;;4974587;28;20113;-52
2023/09/19 01:25:51;;;;;;;6.22;2.28;;;17.70;99.90;;;;;;4974918;28;20106;-50
2023/09/19 01:28:28;;;;;;;2.13;1.92;;;17.60;99.90;;;;;;4975101;28;20113;-53
2023/09/19 01:30:58;;;;;;;7.43;1.90;;;17.60;99.90;;;;;;4975207;28;20031;-50
2023/09/19 01:33:25;;;;;;;2.83;1.70;;;17.60;99.90;;;;;;4975019;28;20081;-50
2023/09/19 01:35:52;;;;;;;5.13;2.28;;;17.70;99.90;;;;;;4974904;28;20106;-50
2023/09/19 01:38:19;;;;;;;3.47;1.90;;;17.70;99.90;;;;;;4975389;28;20078;-50
2023/09/19 01:41:04;;;;;;;3.17;2.15;;;17.70;99.90;;;;;;4974818;28;20058;-46
2023/09/19 01:43:37;;;;;;;22.90;18.05;;;17.70;99.90;;;;;;4974868;28;20121;-52
2023/09/19 01:46:24;;;;;;;9.10;5.22;;;17.70;99.90;;;;;;4974667;28;20023;-49
2023/09/19 01:49:33;;;;;;;43.03;22.55;;;17.70;99.90;;;;;;4975330;28;20038;-50
2023/09/19 01:52:16;;;;;;;2.15;1.88;;;17.80;99.90;;;;;;4974534;28;20026;-50
2023/09/19 01:54:50;;;;;;;4.40;1.95;;;17.80;99.90;;;;;;4974816;28;20026;-51
2023/09/19 01:57:28;;;;;;;5.93;2.10;;;17.80;99.90;;;;;;4974736;28;20030;-48
2023/09/19 02:00:07;;;;;;;4.60;2.00;;;17.80;99.90;;;;;;4973558;28;20022;-48
2023/09/19 02:02:37;;;;;;;4.47;1.90;;;17.70;99.90;;;;;;4971353;28;20022;-51
2023/09/19 02:05:04;;;;;;;2.47;1.92;;;17.70;99.90;;;;;;4972042;28;20030;-52
2023/09/19 02:07:31;;;;;;;3.47;2.00;;;17.70;99.90;;;;;;4973671;28;20031;-49
2023/09/19 02:09:59;;;;;;;3.97;2.25;;;17.70;99.90;;;;;;4974095;28;20102;-51
2023/09/19 02:12:25;;;;;;;3.08;2.10;;;17.60;99.90;;;;;;4974105;28;20487;-49
2023/09/19 02:14:51;;;;;;;4.32;2.00;;;17.60;99.90;;;;;;4974004;28;20031;-48
2023/09/19 02:17:17;;;;;;;4.05;2.30;;;17.60;99.90;;;;;;4973900;28;20509;-46
2023/09/19 02:19:42;;;;;;;8.35;2.25;;;17.60;99.90;;;;;;4974099;28;20027;-48
2023/09/19 02:22:10;;;;;;;2.30;2.10;;;17.50;99.90;;;;;;4974143;28;20078;-48
2023/09/19 02:24:38;;;;;;;2.83;2.10;;;17.50;99.90;;;;;;4973894;28;20025;-46
2023/09/19 02:27:05;;;;;;;1.98;1.88;;;17.50;99.90;;;;;;4973799;28;20027;-46
2023/09/19 02:29:32;;;;;;;4.82;2.15;;;17.40;99.90;;;;;;4972629;28;20383;-48
2023/09/19 02:31:58;;;;;;;3.50;2.42;;;17.30;99.90;;;;;;4972329;28;20049;-46
2023/09/19 02:34:25;;;;;;;4.70;1.85;;;17.30;99.90;;;;;;4972519;28;20161;-48
2023/09/19 02:36:52;;;;;;;4.03;2.13;;;17.30;99.90;;;;;;4973693;28;20023;-47
2023/09/19 02:39:17;;;;;;;4.60;2.30;;;17.20;99.90;;;;;;4973864;28;20031;-47
2023/09/19 02:41:43;;;;;;;5.00;2.10;;;17.40;99.90;;;;;;4973581;28;20030;-47
2023/09/19 02:44:09;;;;;;;2.83;2.00;;;17.10;99.90;;;;;;4973449;28;20402;-46
2023/09/19 02:46:37;;;;;;;2.85;2.05;;;17.10;99.90;;;;;;4973581;28;20473;-47
2023/09/19 02:49:06;;;;;;;3.15;2.33;;;17.10;99.90;;;;;;4973673;28;20027;-47
2023/09/19 02:51:33;;;;;;;4.57;2.15;;;17.10;99.90;;;;;;4973654;28;20029;-50
2023/09/19 02:54:03;;;;;;;3.20;2.35;;;17.10;99.90;;;;;;4973441;28;20490;-47
2023/09/19 02:56:29;;;;;;;2.50;2.30;;;17.10;99.90;;;;;;4973269;28;20027;-53
2023/09/19 02:58:55;;;;;;;2.22;1.77;;;17.00;99.90;;;;;;4973279;28;20076;-46
2023/09/19 03:01:21;;;;;;;8.88;2.17;;;17.00;99.90;;;;;;4973178;28;20494;-50
2023/09/19 03:03:46;;;;;;;6.40;2.08;;;17.00;99.90;;;;;;4973194;28;20038;-46
2023/09/19 03:06:13;;;;;;;2.65;1.75;;;16.90;99.90;;;;;;4973144;28;20025;-47
2023/09/19 03:08:39;;;;;;;9.23;2.65;;;16.90;99.90;;;;;;4973184;28;20019;-47
2023/09/19 03:11:06;;;;;;;3.67;1.80;;;16.90;99.90;;;;;;4973107;28;20029;-47
2023/09/19 03:13:32;;;;;;;2.95;1.90;;;16.80;99.90;;;;;;4971815;28;20057;-48
2023/09/19 03:15:58;;;;;;;3.03;1.95;;;16.80;99.90;;;;;;4972910;28;20098;-46
2023/09/19 03:18:26;;;;;;;3.33;1.92;;;16.80;99.90;;;;;;4973088;28;20114;-50
2023/09/19 03:20:55;;;;;;;4.13;1.83;;;16.80;99.90;;;;;;4973028;28;20023;-49
2023/09/19 03:23:21;;;;;;;6.88;2.17;;;16.80;99.90;;;;;;4972989;28;20409;-46
2023/09/19 03:25:47;;;;;;;3.17;1.83;;;16.80;99.90;;;;;;4972530;28;20102;-49
2023/09/19 03:28:15;;;;;;;5.07;2.35;;;16.80;99.90;;;;;;4973053;28;20030;-47
2023/09/19 03:30:40;;;;;;;3.22;2.00;;;16.80;99.90;;;;;;4971648;28;20023;-48
2023/09/19 03:33:06;;;;;;;5.60;1.92;;;16.80;99.90;;;;;;4972899;28;20023;-49
2023/09/19 03:35:31;;;;;;;2.95;1.88;;;16.80;99.90;;;;;;4972680;28;20058;-46
2023/09/19 03:37:57;;;;;;;4.53;1.95;;;16.70;99.90;;;;;;4972864;28;20038;-47
2023/09/19 03:40:23;;;;;;;2.65;1.80;;;16.70;99.90;;;;;;4973047;28;20058;-46
2023/09/19 03:42:49;;;;;;;7.88;2.22;;;16.80;99.90;;;;;;4972855;28;20411;-47
2023/09/19 03:45:16;;;;;;;2.50;1.80;;;16.70;99.90;;;;;;4971958;28;20026;-46
2023/09/19 03:47:41;;;;;;;7.43;2.25;;;16.70;99.90;;;;;;4972748;28;20391;-47
2023/09/19 03:50:11;;;;;;;1.83;1.73;;;16.70;99.90;;;;;;4972612;28;20027;-49
2023/09/19 03:52:36;;;;;;;3.40;2.28;;;16.70;99.90;;;;;;4972636;28;20030;-47
2023/09/19 03:55:04;;;;;;;5.70;2.33;;;16.70;99.90;;;;;;4972398;28;20027;-48
2023/09/19 03:57:30;;;;;;;4.28;2.55;;;16.60;99.90;;;;;;4972685;28;20045;-47
2023/09/19 03:59:55;;;;;;;6.13;2.75;;;16.50;99.90;;;;;;4972649;28;20546;-47
2023/09/19 04:02:24;;;;;;;3.25;1.88;;;16.50;99.90;;;;;;4972402;28;20034;-47
2023/09/19 04:04:53;;;;;;;2.00;1.85;;;16.50;99.90;;;;;;4972408;28;20131;-46
2023/09/19 04:07:22;;;;;;;6.30;2.75;;;16.40;99.90;;;;;;4972463;28;20145;-47
2023/09/19 04:09:48;;;;;;;6.47;1.98;;;16.50;99.90;;;;;;4972509;28;20022;-46
2023/09/19 04:12:16;;;;;;;1.70;1.60;;;16.50;99.90;;;;;;4972486;28;20062;-47
2023/09/19 04:14:42;;;;;;;2.30;1.92;;;16.50;99.90;;;;;;4972745;28;20473;-47
2023/09/19 04:17:08;;;;;;;4.82;1.77;;;16.50;99.90;;;;;;4972177;28;20078;-50
2023/09/19 04:19:33;;;;;;;3.38;1.90;;;16.50;99.90;;;;;;4972589;28;20018;-46
2023/09/19 04:21:59;;;;;;;2.75;2.33;;;16.60;99.90;;;;;;4972416;28;20447;-47
2023/09/19 04:24:24;;;;;;;6.05;2.85;;;16.60;99.90;;;;;;4972289;28;20129;-46
2023/09/19 04:26:49;;;;;;;3.35;2.03;;;16.60;99.90;;;;;;4970664;28;20023;-46
2023/09/19 04:29:15;;;;;;;3.47;2.20;;;16.70;99.90;;;;;;4972325;28;20023;-49
2023/09/19 04:31:43;;;;;;;2.90;2.00;;;16.70;99.90;;;;;;4972234;28;20034;-48
2023/09/19 04:34:10;;;;;;;5.05;2.25;;;16.80;99.90;;;;;;4972454;28;20023;-46
2023/09/19 04:36:36;;;;;;;7.07;2.08;;;16.80;99.90;;;;;;4972177;28;20023;-48
2023/09/19 04:39:05;;;;;;;2.20;2.00;;;16.80;99.90;;;;;;4972326;28;20035;-48
2023/09/19 04:41:30;;;;;;;4.80;2.30;;;16.80;99.90;;;;;;4972256;28;20030;-46
2023/09/19 04:43:56;;;;;;;4.22;2.60;;;16.80;99.90;;;;;;4971954;28;20490;-46
2023/09/19 04:46:21;;;;;;;3.35;2.50;;;16.80;99.90;;;;;;4972071;28;20019;-44
2023/09/19 04:48:47;;;;;;;6.57;2.00;;;16.70;99.90;;;;;;4972214;28;20037;-50
2023/09/19 04:51:13;;;;;;;6.85;2.20;;;16.70;99.90;;;;;;4970907;28;20074;-48
2023/09/19 04:53:39;;;;;;;3.67;2.08;;;16.70;99.90;;;;;;4972011;28;20033;-49
2023/09/19 04:56:06;;;;;;;5.32;2.60;;;16.70;99.90;;;;;;4972486;28;20027;-48
2023/09/19 04:58:32;;;;;;;10.95;3.20;;;16.70;99.90;;;;;;4975736;28;20039;-46
2023/09/19 05:00:57;;;;;;;5.68;2.63;;;16.70;99.90;;;;;;4975311;28;20031;-50
2023/09/19 05:03:22;;;;;;;6.53;2.00;;;16.70;99.90;;;;;;4975421;28;20109;-46
2023/09/19 05:05:48;;;;;;;3.33;1.75;;;16.80;99.90;;;;;;4975368;28;20111;-47
2023/09/19 05:08:14;;;;;;;6.00;2.00;;;16.80;99.90;;;;;;4975501;28;20387;-49
2023/09/19 05:10:40;;;;;;;4.88;1.92;;;16.70;99.90;;;;;;4975330;28;20106;-47
2023/09/19 05:13:07;;;;;;;8.57;2.05;;;16.70;99.90;;;;;;4975170;28;20114;-47
2023/09/19 05:15:33;;;;;;;5.65;1.92;;;16.70;99.90;;;;;;4975407;28;20050;-48
2023/09/19 05:17:59;;;;;;;8.60;2.33;;;16.70;99.90;;;;;;4974044;28;20455;-49
2023/09/19 05:20:29;;;;;;;8.93;3.00;;;16.70;99.90;;;;;;4973943;28;20027;-47
2023/09/19 05:23:13;;;;;;;3.03;2.72;;;16.70;99.90;;;;;;4973836;28;20037;-48
2023/09/19 05:25:40;;;;;;;5.22;3.00;;;16.60;99.90;;;;;;4973639;28;20027;-48
2023/09/19 05:28:07;;;;;;;6.22;2.38;;;16.60;99.90;;;;;;4973756;28;20027;-46
2023/09/19 05:30:35;;;;;;;4.43;3.70;;;16.60;99.90;;;;;;4975042;28;20054;-47
2023/09/19 05:33:02;;;;;;;5.45;3.13;;;16.60;99.90;;;;;;4975033;28;20027;-48
2023/09/19 05:35:27;;;;;;;4.75;3.70;;;16.60;99.90;;;;;;4973474;28;20401;-49
2023/09/19 05:37:54;;;;;;;7.18;3.42;;;16.60;99.90;;;;;;4973638;28;20019;-46
2023/09/19 05:40:20;;;;;;;5.13;3.05;;;16.60;99.90;;;;;;4974838;28;20025;-51
2023/09/19 05:42:46;;;;;;;6.43;4.00;;;16.60;99.90;;;;;;4974888;28;20113;-51
2023/09/19 05:45:13;;;;;;;5.18;3.47;;;16.60;99.90;;;;;;4974444;28;20403;-47
2023/09/19 05:47:43;;;;;;;4.38;3.58;;;16.60;99.90;;;;;;4974693;28;20058;-52
2023/09/19 05:50:09;;;;;;;6.53;3.28;;;16.60;99.90;;;;;;4975021;28;20072;-46
2023/09/19 05:52:35;;;;;;;6.53;3.28;;;16.60;99.90;;;;;;4974582;28;20031;-47
2023/09/19 05:55:00;;;;;;;4.88;3.40;;;16.60;99.90;;;;;;4972884;28;20027;-50
2023/09/19 05:57:27;;;;;;;6.75;3.70;;;16.60;99.90;;;;;;4974538;28;20038;-48
2023/09/19 05:59:53;;;;;;;8.50;3.90;;;16.70;99.90;;;;;;4974927;28;20483;-49
2023/09/19 06:02:19;;;;;;;5.57;2.90;;;16.70;99.90;;;;;;4973267;28;20046;-47
2023/09/19 06:04:45;;;;;;;9.00;3.78;;;16.60;99.90;;;;;;4974324;28;20081;-47
2023/09/19 06:07:11;;;;;;;9.48;3.60;;;16.70;99.90;;;;;;4973707;28;20026;-47
2023/09/19 06:09:36;;;;;;;8.85;2.95;;;16.80;99.90;;;;;;4974941;28;20023;-52
2023/09/19 06:12:03;;;;;;;5.05;2.70;;;16.80;99.90;;;;;;4974482;28;20371;-48
2023/09/19 06:14:29;;;;;;;4.32;2.78;;;16.90;99.90;;;;;;4974198;28;20486;-51
2023/09/19 06:16:54;;;;;;;7.10;3.38;;;16.90;99.90;;;;;;4974096;28;20034;-48
2023/09/19 06:19:22;;;;;;;7.68;3.10;;;17.00;99.90;;;;;;4974180;28;20066;-51
2023/09/19 06:21:48;;;;;;;5.57;2.95;;;17.00;99.90;;;;;;4974083;28;20027;-49
2023/09/19 06:24:14;;;;;;;8.13;2.75;;;17.10;99.90;;;;;;4973805;28;20037;-49
2023/09/19 06:26:40;;;;;;;3.28;2.47;;;17.10;99.90;;;;;;4973445;28;20027;-48
2023/09/19 06:29:08;;;;;;;7.43;2.80;;;17.20;99.90;;;;;;4974304;28;20026;-49
2023/09/19 06:31:34;;;;;;;9.40;2.40;;;17.20;99.90;;;;;;4974083;28;20114;-45
2023/09/19 06:33:59;;;;;;;6.03;2.60;;;17.20;99.90;;;;;;4973883;28;20062;-51
2023/09/19 06:36:25;;;;;;;6.20;2.40;;;17.30;99.90;;;;;;4973774;28;20081;-51
2023/09/19 06:38:53;;;;;;;4.32;2.53;;;17.30;99.90;;;;;;4973809;28;20077;-49
2023/09/19 06:41:19;;;;;;;8.25;2.75;;;17.40;99.90;;;;;;4973711;28;20042;-48
2023/09/19 06:43:45;;;;;;;5.80;2.42;;;17.30;99.90;;;;;;4973614;28;20019;-47
2023/09/19 06:46:12;;;;;;;5.88;2.20;;;17.40;99.90;;;;;;4973610;28;20330;-49
2023/09/19 06:48:38;;;;;;;5.05;2.53;;;17.40;99.90;;;;;;4973698;28;20018;-46
2023/09/19 06:51:05;;;;;;;5.40;2.72;;;17.40;99.90;;;;;;4973605;28;20084;-44
2023/09/19 06:53:35;;;;;;;4.70;2.53;;;17.50;99.90;;;;;;4973474;28;20027;-44
2023/09/19 06:56:01;;;;;;;8.02;2.53;;;17.50;99.90;;;;;;4973348;28;20033;-47
2023/09/19 06:58:27;;;;;;;2.78;1.95;;;17.60;99.90;;;;;;4973402;28;20031;-46
2023/09/19 07:00:53;;;;;;;6.07;1.90;;;17.70;99.90;;;;;;4972295;28;20031;-45
2023/09/19 07:03:21;;;;;;;2.78;2.20;;;17.80;99.90;;;;;;4973271;28;20019;-47
2023/09/19 07:05:48;;;;;;;5.68;2.33;;;17.90;99.90;;;;;;4973432;28;20023;-49
2023/09/19 07:08:14;;;;;;;5.57;2.33;;;17.90;99.90;;;;;;4973246;28;20482;-45
2023/09/19 07:10:48;;;;;;;9.32;3.17;;;18.00;99.90;;;;;;4973267;28;20031;-44
2023/09/19 07:13:16;;;;;;;5.82;2.53;;;18.10;99.90;;;;;;4973106;28;20096;-45
2023/09/19 07:15:46;;;;;;;6.93;2.40;;;18.10;99.90;;;;;;4973083;28;20038;-48
2023/09/19 07:18:14;;;;;;;8.07;3.47;;;18.10;99.90;;;;;;4972967;28;20122;-45
2023/09/19 07:20:45;;;;;;;6.03;2.08;;;18.20;99.90;;;;;;4972660;28;20023;-48
2023/09/19 07:23:13;;;;;;;5.72;2.38;;;18.20;99.90;;;;;;4972868;28;20026;-47
2023/09/19 07:25:39;;;;;;;3.78;2.13;;;18.30;99.90;;;;;;4972407;28;20030;-48
2023/09/19 07:28:05;;;;;;;5.60;2.35;;;18.40;99.90;;;;;;4972845;28;20029;-46
2023/09/19 07:30:30;;;;;;;6.05;2.40;;;18.50;99.90;;;;;;4972844;28;20061;-49
2023/09/19 07:32:56;;;;;;;5.63;2.72;;;18.60;99.90;;;;;;4972816;28;20510;-45
2023/09/19 07:35:21;;;;;;;8.13;1.98;;;18.60;99.90;;;;;;4972654;28;20105;-46
2023/09/19 07:37:51;;;;;;;4.82;2.10;;;18.60;99.90;;;;;;4993194;23;20581;-49
2023/09/19 07:40:17;;;;;;;2.67;2.20;;;18.70;99.90;;;;;;4972763;28;20098;-53
2023/09/19 07:42:44;;;;;;;6.95;2.15;;;18.50;99.90;;;;;;4972759;28;20126;-49
2023/09/19 07:45:14;;;;;;;5.40;3.08;;;18.70;99.90;;;;;;4972629;28;20023;-52
2023/09/19 07:47:49;;;;;;;3.90;1.83;;;18.90;99.90;;;;;;4978449;28;20037;-51
2023/09/19 07:50:18;;;;;;;6.20;2.15;;;19.10;99.90;;;;;;4992202;28;20068;-48
2023/09/19 07:52:50;;;;;;;6.82;2.60;;;19.10;99.90;;;;;;4992115;28;20065;-52
2023/09/19 07:55:17;;;;;;;6.53;2.63;;;19.10;99.90;;;;;;4992086;28;20038;-54
2023/09/19 07:57:43;;;;;;;7.55;2.10;;;19.00;99.90;;;;;;4992196;28;20541;-51
2023/09/19 08:00:12;;;;;;;2.80;1.45;;;19.00;99.90;;;;;;4990979;28;20502;-48
2023/09/19 08:02:39;;;;;;;11.27;1.90;;;19.00;99.90;;;;;;4992248;28;20118;-52
2023/09/19 08:05:15;;;;;;;5.07;1.75;;;19.00;99.90;;;;;;4990507;28;20054;-51
2023/09/19 08:07:41;;;;;;;;;;;18.90;99.90;;;;;;4991028;28;20050;-51
2023/09/19 08:10:08;;;;;;;7.20;1.63;;;18.90;99.90;;;;;;4991891;28;20292;-50
2023/09/19 08:12:36;;;;;;;5.28;1.63;;;18.70;99.90;;;;;;4991882;28;20026;-46
2023/09/19 08:15:03;;;;;;;6.38;1.60;;;18.60;99.90;;;;;;4990391;28;20030;-48
2023/09/19 08:17:33;;;;;;;7.22;1.50;;;18.50;99.90;;;;;;4992048;28;20556;-50
2023/09/19 08:20:00;;;;;;;5.70;1.88;;;18.50;99.90;;;;;;4992117;28;20039;-50
2023/09/19 08:22:27;;;;;;;7.10;1.52;;;18.50;99.90;;;;;;4992074;28;20374;-51
2023/09/19 08:24:52;;;;;;;7.18;1.90;;;18.60;99.90;;;;;;4991695;28;20018;-52
2023/09/19 08:27:19;;;;;;;4.53;1.58;;;18.60;99.90;;;;;;4991662;28;20018;-49
2023/09/19 08:29:45;;;;;;;3.47;1.50;;;18.60;99.90;;;;;;4991938;28;20386;-51
2023/09/19 08:32:10;;;;;;;7.70;1.80;;;18.60;99.90;;;;;;4995763;28;20030;-53
2023/09/19 08:34:38;;;;;;;2.47;1.35;;;18.70;99.90;;;;;;4995949;28;20043;-49
2023/09/19 08:37:04;;;;;;;5.22;1.88;;;18.80;99.90;;;;;;4995433;28;20037;-48
2023/09/19 08:39:33;;;;;;;6.85;1.48;;;18.80;99.90;;;;;;4995890;28;20034;-51
2023/09/19 08:41:59;;;;;;;7.28;2.05;;;18.90;99.90;;;;;;4995560;28;20053;-49
2023/09/19 08:44:25;;;;;;;5.72;1.92;;;18.90;99.90;;;;;;4995264;28;20030;-52
2023/09/19 08:46:55;;;;;;;9.50;1.77;;;18.90;99.90;;;;;;4995256;28;20018;-51
2023/09/19 08:49:33;;;;;;;8.48;1.83;;;19.10;99.90;;;;;;4994302;28;20025;-49
2023/09/19 08:52:10;;;;;;;7.38;1.95;;;19.40;99.90;;;;;;4995531;28;20026;-51
2023/09/19 08:54:41;;;;;;;5.47;1.80;;;19.70;99.90;;;;;;4995383;28;20389;-47
2023/09/19 08:57:10;;;;;;;4.95;1.67;;;20.30;99.90;;;;;;4995231;28;20026;-52
2023/09/19 08:59:39;;;;;;;7.70;2.20;;;20.50;99.90;;;;;;4994008;28;20030;-50
2023/09/19 09:02:11;;;;;;;6.85;2.53;;;20.70;99.90;;;;;;4994280;28;20022;-49
2023/09/19 09:04:40;;;;;;;8.40;2.13;;;20.70;99.90;;;;;;4995373;28;20023;-49
2023/09/19 09:07:10;;;;;;;4.10;1.35;;;20.90;99.90;;;;;;4995378;28;20490;-53
2023/09/19 09:09:35;;;;;;;6.53;1.98;;;21.00;99.90;;;;;;4994199;28;20080;-49
2023/09/19 09:12:02;;;;;;;2.92;1.83;;;21.00;99.90;;;;;;4995138;28;20502;-49
2023/09/19 09:14:29;;;;;;;3.63;1.48;;;21.00;99.90;;;;;;4995263;28;20026;-49
2023/09/19 09:16:58;;;;;;;16.48;1.83;;;21.00;99.90;;;;;;4993618;28;20026;-49
2023/09/19 09:19:24;;;;;;;6.15;2.78;;;21.00;99.90;;;;;;4994958;28;20018;-51
2023/09/19 09:21:51;;;;;;;7.70;1.77;;;20.90;99.90;;;;;;4995449;28;20050;-50
2023/09/19 09:24:30;;;;;;;5.85;1.52;;;20.70;99.90;;;;;;4995164;28;20023;-55
2023/09/19 09:26:59;;;;;;;5.05;1.67;;;20.90;99.90;;;;;;4994617;28;20033;-49
2023/09/19 09:29:45;;;;;;;5.28;1.92;;;21.10;99.90;;;;;;4995140;28;20497;-50
2023/09/19 09:32:23;;;;;;;5.10;1.52;;;21.10;99.90;;;;;;4995142;28;20030;-52
2023/09/19 09:34:54;;;;;;;5.40;1.55;;;21.10;99.90;;;;;;4994810;28;20057;-51
2023/09/19 09:37:21;;;;;;;4.07;1.77;;;21.00;99.90;;;;;;4994640;28;20034;-52
2023/09/19 09:39:56;;;;;;;6.68;2.10;;;21.00;99.90;;;;;;4995282;28;20029;-56
2023/09/19 09:42:35;;;;;;;5.38;1.67;;;21.20;99.90;;;;;;4993765;28;20019;-54
2023/09/19 09:48:03;;;;;;;5.60;2.22;;;21.30;99.90;;;;;;4994668;28;20026;-50
2023/09/19 09:53:07;;;;;;;8.90;2.03;;;21.10;99.90;;;;;;4994724;28;20034;-51
2023/09/19 09:56:02;;;;;;;5.60;1.83;;;21.10;99.90;;;;;;4994280;28;20026;-49
2023/09/19 09:58:35;;;;;;;4.95;1.70;;;21.30;99.90;;;;;;4994110;28;20022;-50
2023/09/19 10:01:10;;;;;;;5.18;1.80;;;21.40;99.90;;;;;;4994201;28;20030;-52
2023/09/19 10:03:43;;;;;;;7.93;2.30;;;21.40;99.90;;;;;;4992866;28;20105;-51
2023/09/19 10:06:25;;;;;;;7.97;2.72;;;21.60;99.90;;;;;;4994213;28;20366;-52
2023/09/19 10:09:05;;;;;;;6.25;1.52;;;21.50;99.90;;;;;;4994042;28;20025;-51
2023/09/19 10:11:31;;;;;;;9.65;1.85;;;21.80;99.90;;;;;;4994123;28;20110;-53
2023/09/19 10:14:01;;;;;;;8.68;2.10;;;21.80;99.90;;;;;;4993815;28;20464;-53
2023/09/19 10:16:30;;;;;;;3.80;2.10;;;21.80;99.90;;;;;;4994056;28;20537;-49
2023/09/19 10:19:01;;;;;;;7.13;1.92;;;21.70;99.90;;;;;;4993623;28;20026;-52
2023/09/19 10:21:29;;;;;;;5.72;2.20;;;21.60;98.90;;;;;;4993556;28;20030;-54
2023/09/19 10:24:00;;;;;;;6.18;1.58;;;21.10;98.50;;;;;;4993271;28;20023;-55
2023/09/19 10:26:31;;;;;;;7.45;2.17;;;20.90;99.00;;;;;;4992991;28;20033;-49
2023/09/19 10:29:00;;;;;;;7.95;2.15;;;20.80;99.10;;;;;;4993391;28;20556;-48
2023/09/19 10:31:27;;;;;;;7.45;2.35;;;20.80;99.00;;;;;;4993198;28;20026;-52
2023/09/19 10:33:55;;;;;;;6.20;2.28;;;20.80;98.70;;;;;;4993091;28;20284;-53
2023/09/19 10:36:25;;;;;;;12.45;1.90;;;20.80;99.00;;;;;;4992995;28;20466;-50
2023/09/19 10:38:56;;;;;;;12.57;2.17;;;20.80;98.80;;;;;;4993066;28;20030;-49
2023/09/19 10:41:22;;;;;;;7.60;2.22;;;20.80;98.80;;;;;;4992987;28;20105;-48
2023/09/19 10:43:48;;;;;;;6.75;2.10;;;21.00;99.60;;;;;;4992788;28;20462;-53
2023/09/19 10:46:14;;;;;;;11.15;2.10;;;21.10;98.50;;;;;;4992841;28;20157;-49
2023/09/19 10:48:43;;;;;;;9.60;1.95;;;21.20;98.20;;;;;;4992953;28;20022;-52
2023/09/19 10:51:23;;;;;;;9.82;2.17;;;21.30;98.40;;;;;;4992998;28;20022;-52
2023/09/19 10:53:58;;;;;;;8.48;2.08;;;21.20;98.00;;;;;;4992757;28;20521;-49
2023/09/19 10:56:28;;;;;;;10.77;2.50;;;21.00;97.60;;;;;;4992650;28;20030;-49
2023/09/19 10:59:08;;;;;;;8.15;2.20;;;20.60;98.00;;;;;;4992751;28;20375;-52
2023/09/19 11:01:50;;;;;;;9.80;2.40;;;20.60;98.40;;;;;;4992790;28;20030;-49
2023/09/19 11:04:25;;;;;;;8.55;2.45;;;20.60;98.90;;;;;;4992581;28;20142;-51
2023/09/19 11:07:16;;;;;;;3.75;2.25;;;20.50;98.10;;;;;;4992405;28;20057;-51
2023/09/19 11:09:57;;;;;;;6.68;1.65;;;20.50;97.90;;;;;;4992811;28;20101;-50
2023/09/19 11:12:36;;;;;;;10.55;2.10;;;20.60;98.70;;;;;;4992674;28;20386;-54
2023/09/19 11:15:07;;;;;;;9.23;3.33;;;20.60;97.80;;;;;;4992130;28;20038;-49
2023/09/19 11:17:40;;;;;;;9.20;1.90;;;20.80;97.90;;;;;;4992685;28;20018;-51
2023/09/19 11:22:58;;;;;;;6.90;2.28;;;20.90;98.10;;;;;;4992405;28;20031;-52
2023/09/19 11:25:30;;;;;;;7.95;2.20;;;20.90;97.00;;;;;;4992223;28;20137;-50
2023/09/19 11:28:25;;;;;;;5.70;2.17;;;20.90;96.60;;;;;;4992317;28;20034;-53
2023/09/19 11:30:55;;;;;;;10.18;2.33;;;20.80;96.90;;;;;;4987379;28;20030;-52
2023/09/19 11:33:33;;;;;;;5.20;1.77;;;20.70;97.20;;;;;;4992185;28;20022;-49
2023/09/19 11:36:14;;;;;;;8.13;2.08;;;20.60;97.60;;;;;;4992246;28;20029;-50
2023/09/19 11:38:49;;;;;;;5.05;2.17;;;20.60;97.50;;;;;;4992126;28;20097;-53
2023/09/19 11:41:21;;;;;;;7.15;2.22;;;20.50;97.40;;;;;;4992325;28;20030;-53
2023/09/19 11:44:13;;;;;;;9.43;2.28;;;20.50;97.30;;;;;;4991979;28;20118;-48
2023/09/19 11:46:51;;;;;;;7.55;1.63;;;20.40;97.50;;;;;;4985358;28;20057;-49
2023/09/19 11:49:20;;;;;;;6.95;2.00;;;20.40;97.10;;;;;;4991994;28;20031;-53
2023/09/19 11:51:47;;;;;;;5.28;1.98;;;20.40;97.10;;;;;;4992439;28;20069;-51
2023/09/19 11:54:17;;;;;;;9.98;2.58;;;20.50;97.30;;;;;;4991903;28;20516;-50
2023/09/19 11:56:45;;;;;;;6.93;2.80;;;20.50;97.80;;;;;;4991887;28;20030;-51
2023/09/19 11:59:11;;;;;;;6.30;1.77;;;20.50;97.30;;;;;;4991920;28;20037;-55
2023/09/19 12:01:43;;;;;;;5.93;1.98;;;20.50;97.00;;;;;;4990521;28;20027;-50
2023/09/19 12:04:11;;;;;;;7.47;1.63;;;20.50;97.20;;;;;;4992026;28;20513;-53
2023/09/19 12:06:38;;;;;;;8.75;2.17;;;20.50;97.60;;;;;;4993569;28;20022;-52
2023/09/19 12:09:10;;;;;;;5.53;2.08;;;20.50;97.80;;;;;;4995747;28;20023;-54
2023/09/19 12:11:43;;;;;;;4.60;1.48;;;20.60;97.50;;;;;;4995831;28;20576;-50
2023/09/19 12:14:09;;;;;;;7.97;1.70;;;20.60;97.60;;;;;;4995888;28;20034;-54
2023/09/19 12:16:36;;;;;;;8.80;2.13;;;20.70;97.70;;;;;;4995896;28;20636;-53
2023/09/19 12:19:21;;;;;;;6.15;1.80;;;20.70;96.90;;;;;;4995819;28;20403;-54
2023/09/19 12:21:57;;;;;;;7.25;1.70;;;20.70;96.40;;;;;;4995923;28;20576;-53
2023/09/19 12:24:29;;;;;;;5.53;1.60;;;20.70;97.20;;;;;;4995599;28;20023;-53
2023/09/19 12:27:01;;;;;;;11.60;2.17;;;20.70;97.20;;;;;;4995106;28;20030;-51
2023/09/19 12:29:27;;;;;;;4.38;2.05;;;20.70;97.30;;;;;;4995622;28;20031;-45
2023/09/19 12:31:57;;;;;;;9.30;2.30;;;20.80;97.60;;;;;;4995607;28;20030;-51
2023/09/19 12:34:27;;;;;;;7.35;1.50;;;20.80;97.20;;;;;;4995635;28;20089;-50
2023/09/19 12:37:27;;;;;;;5.35;1.60;;;20.80;96.70;;;;;;4995358;28;20456;-50
2023/09/19 12:39:54;;;;;;;7.60;1.70;;;20.80;97.50;;;;;;4995868;28;20034;-51
2023/09/19 12:42:29;;;;;;;3.78;1.60;;;20.90;97.20;;;;;;4995692;28;20030;-53
2023/09/19 12:44:57;;;;;;;4.63;1.80;;;20.90;96.90;;;;;;4995265;28;20026;-52
2023/09/19 12:47:24;;;;;;;6.43;2.83;;;21.00;97.20;;;;;;4995106;28;20045;-53
2023/09/19 12:50:18;;;;;;;8.90;1.67;;;21.00;97.30;;;;;;4995162;28;20018;-52
2023/09/19 12:52:48;;;;;;;5.82;1.85;;;21.00;97.00;;;;;;4994238;28;20629;-50
2023/09/19 12:55:25;;;;;;;3.92;1.90;;;21.10;97.60;;;;;;4995096;28;20027;-49
2023/09/19 12:58:19;;;;;;;3.95;1.45;;;21.10;97.50;;;;;;4995265;28;20109;-54
2023/09/19 13:00:45;;;;;;;6.05;1.40;;;21.20;97.20;;;;;;4992116;28;20313;-50
2023/09/19 13:03:34;;;;;;;6.32;1.95;;;21.30;96.60;;;;;;4995078;28;20088;-51
2023/09/19 13:06:04;;;;;;;2.35;1.48;;;21.20;95.50;;;;;;4994951;28;20022;-50